sensor_id;sensor_type;location;lat;lon;timestamp;pressure;altitude;pressure_sealevel;temperature;humidity
41044;BME280;51680;49.806;18.774;2023-08-21T00:01:46;97941.47;;;23.82;74.38
41044;BME280;51680;49.806;18.774;2023-08-21T00:04:49;97940.13;;;23.86;74.14
41044;BME280;51680;49.806;18.774;2023-08-21T00:07:51;97940.28;;;23.84;74.18
41044;BME280;51680;49.806;18.774;2023-08-21T00:10:52;97930.31;;;23.86;74.25
41044;BME280;51680;49.806;18.774;2023-08-21T00:13:54;97933.50;;;23.90;74.21
41044;BME280;51680;49.806;18.774;2023-08-21T00:16:56;97920.50;;;23.95;74.00
41044;BME280;51680;49.806;18.774;2023-08-21T00:19:59;97921.47;;;24.02;73.81
41044;BME280;51680;49.806;18.774;2023-08-21T00:23:01;97909.47;;;23.98;73.93
41044;BME280;51680;49.806;18.774;2023-08-21T00:26:02;97910.47;;;23.97;74.01
41044;BME280;51680;49.806;18.774;2023-08-21T00:29:04;97905.44;;;23.86;74.45
41044;BME280;51680;49.806;18.774;2023-08-21T00:32:06;97907.31;;;23.77;74.76
41044;BME280;51680;49.806;18.774;2023-08-21T00:35:10;97916.47;;;23.75;74.88
41044;BME280;51680;49.806;18.774;2023-08-21T00:38:12;97915.13;;;23.71;74.79
41044;BME280;51680;49.806;18.774;2023-08-21T00:41:14;97916.28;;;23.68;74.94
41044;BME280;51680;49.806;18.774;2023-08-21T00:44:15;97925.13;;;23.77;74.75
41044;BME280;51680;49.806;18.774;2023-08-21T00:47:18;97916.81;;;23.80;74.84
41044;BME280;51680;49.806;18.774;2023-08-21T00:50:22;97927.13;;;23.67;76.35
41044;BME280;51680;49.806;18.774;2023-08-21T00:53:24;97925.97;;;23.77;74.66
41044;BME280;51680;49.806;18.774;2023-08-21T00:56:26;97911.13;;;23.83;74.34
41044;BME280;51680;49.806;18.774;2023-08-21T00:59:28;97923.31;;;23.93;73.90
41044;BME280;51680;49.806;18.774;2023-08-21T01:02:30;97918.47;;;23.97;73.80
41044;BME280;51680;49.806;18.774;2023-08-21T01:05:34;97911.97;;;23.99;73.63
41044;BME280;51680;49.806;18.774;2023-08-21T01:08:44;97918.31;;;23.98;73.96
41044;BME280;51680;49.806;18.774;2023-08-21T01:11:53;97922.63;;;23.99;73.77
41044;BME280;51680;49.806;18.774;2023-08-21T01:14:59;97922.63;;;23.99;73.63
41044;BME280;51680;49.806;18.774;2023-08-21T01:18:03;97923.66;;;23.98;73.64
41044;BME280;51680;49.806;18.774;2023-08-21T01:21:06;97919.13;;;24.07;73.29
41044;BME280;51680;49.806;18.774;2023-08-21T01:24:10;97917.78;;;24.11;73.18
41044;BME280;51680;49.806;18.774;2023-08-21T01:27:14;97923.13;;;24.19;73.09
41044;BME280;51680;49.806;18.774;2023-08-21T01:30:17;97929.13;;;24.21;73.09
41044;BME280;51680;49.806;18.774;2023-08-21T01:33:19;97925.63;;;24.20;72.93
41044;BME280;51680;49.806;18.774;2023-08-21T01:36:22;97921.78;;;24.07;74.40
41044;BME280;51680;49.806;18.774;2023-08-21T01:39:26;97914.13;;;24.12;73.58
41044;BME280;51680;49.806;18.774;2023-08-21T01:42:29;97899.78;;;24.05;74.17
41044;BME280;51680;49.806;18.774;2023-08-21T01:45:30;97905.13;;;23.97;74.30
41044;BME280;51680;49.806;18.774;2023-08-21T01:48:32;97907.97;;;23.87;74.91
41044;BME280;51680;49.806;18.774;2023-08-21T01:51:34;97906.09;;;23.88;74.44
41044;BME280;51680;49.806;18.774;2023-08-21T01:54:38;97916.97;;;23.86;74.67
41044;BME280;51680;49.806;18.774;2023-08-21T01:57:39;97908.28;;;23.84;74.81
41044;BME280;51680;49.806;18.774;2023-08-21T02:00:45;97909.94;;;23.85;75.45
41044;BME280;51680;49.806;18.774;2023-08-21T02:03:47;97915.78;;;23.81;75.53
41044;BME280;51680;49.806;18.774;2023-08-21T02:06:49;97912.78;;;23.76;75.68
41044;BME280;51680;49.806;18.774;2023-08-21T02:09:52;97910.44;;;23.73;75.84
41044;BME280;51680;49.806;18.774;2023-08-21T02:12:54;97917.13;;;23.69;76.12
41044;BME280;51680;49.806;18.774;2023-08-21T02:15:55;97914.44;;;23.69;76.00
41044;BME280;51680;49.806;18.774;2023-08-21T02:18:57;97911.13;;;23.67;76.15
41044;BME280;51680;49.806;18.774;2023-08-21T02:21:59;97912.78;;;23.60;76.38
41044;BME280;51680;49.806;18.774;2023-08-21T02:25:02;97912.78;;;23.44;76.93
41044;BME280;51680;49.806;18.774;2023-08-21T02:28:04;97899.59;;;23.26;77.67
41044;BME280;51680;49.806;18.774;2023-08-21T02:31:09;97913.50;;;23.12;78.58
41044;BME280;51680;49.806;18.774;2023-08-21T02:34:11;97908.84;;;23.06;78.51
41044;BME280;51680;49.806;18.774;2023-08-21T02:37:12;97902.00;;;23.04;78.93
41044;BME280;51680;49.806;18.774;2023-08-21T02:40:16;97900.84;;;23.06;78.91
41044;BME280;51680;49.806;18.774;2023-08-21T02:43:17;97900.34;;;23.03;79.00
41044;BME280;51680;49.806;18.774;2023-08-21T02:46:19;97891.19;;;23.05;78.92
41044;BME280;51680;49.806;18.774;2023-08-21T02:49:21;97889.69;;;23.03;79.21
41044;BME280;51680;49.806;18.774;2023-08-21T02:52:23;97892.03;;;22.98;79.46
41044;BME280;51680;49.806;18.774;2023-08-21T02:55:26;97889.34;;;22.98;79.41
41044;BME280;51680;49.806;18.774;2023-08-21T02:58:27;97883.69;;;23.01;79.00
41044;BME280;51680;49.806;18.774;2023-08-21T03:01:29;97890.03;;;23.08;78.85
41044;BME280;51680;49.806;18.774;2023-08-21T03:04:31;97898.03;;;23.16;78.77
41044;BME280;51680;49.806;18.774;2023-08-21T03:07:32;97896.28;;;23.24;78.65
41044;BME280;51680;49.806;18.774;2023-08-21T03:10:36;97900.44;;;23.35;78.33
41044;BME280;51680;49.806;18.774;2023-08-21T03:13:37;97894.28;;;23.42;78.08
41044;BME280;51680;49.806;18.774;2023-08-21T03:16:39;97900.47;;;23.51;77.63
41044;BME280;51680;49.806;18.774;2023-08-21T03:19:41;97900.44;;;23.59;77.27
41044;BME280;51680;49.806;18.774;2023-08-21T03:22:44;97908.13;;;23.62;77.36
41044;BME280;51680;49.806;18.774;2023-08-21T03:25:47;97904.78;;;23.60;77.56
41044;BME280;51680;49.806;18.774;2023-08-21T03:28:49;97902.78;;;23.62;77.14
41044;BME280;51680;49.806;18.774;2023-08-21T03:31:52;97906.31;;;23.62;77.35
41044;BME280;51680;49.806;18.774;2023-08-21T03:34:54;97909.13;;;23.53;77.58
41044;BME280;51680;49.806;18.774;2023-08-21T03:37:57;97907.94;;;23.47;78.02
41044;BME280;51680;49.806;18.774;2023-08-21T03:41:02;97902.59;;;23.47;78.37
41044;BME280;51680;49.806;18.774;2023-08-21T03:44:06;97908.13;;;23.46;77.96
41044;BME280;51680;49.806;18.774;2023-08-21T03:47:07;97912.78;;;23.52;77.77
41044;BME280;51680;49.806;18.774;2023-08-21T03:50:18;97903.94;;;23.51;77.99
41044;BME280;51680;49.806;18.774;2023-08-21T03:53:20;97899.63;;;23.58;77.77
41044;BME280;51680;49.806;18.774;2023-08-21T03:56:23;97903.97;;;23.67;77.35
41044;BME280;51680;49.806;18.774;2023-08-21T03:59:25;97899.47;;;23.76;77.20
41044;BME280;51680;49.806;18.774;2023-08-21T04:02:27;97902.63;;;23.87;76.70
41044;BME280;51680;49.806;18.774;2023-08-21T04:05:30;97902.47;;;23.97;76.77
41044;BME280;51680;49.806;18.774;2023-08-21T04:08:32;97899.63;;;24.06;76.28
41044;BME280;51680;49.806;18.774;2023-08-21T04:11:35;97903.44;;;24.20;75.64
41044;BME280;51680;49.806;18.774;2023-08-21T04:14:37;97906.91;;;24.28;75.38
41044;BME280;51680;49.806;18.774;2023-08-21T04:17:40;97906.38;;;24.41;74.89
41044;BME280;51680;49.806;18.774;2023-08-21T04:20:41;97902.69;;;24.50;74.79
41044;BME280;51680;49.806;18.774;2023-08-21T04:23:44;97898.03;;;24.52;74.62
41044;BME280;51680;49.806;18.774;2023-08-21T04:26:47;97896.34;;;24.59;74.21
41044;BME280;51680;49.806;18.774;2023-08-21T04:29:49;97889.16;;;24.59;74.56
41044;BME280;51680;49.806;18.774;2023-08-21T04:32:51;97889.66;;;24.63;74.01
41044;BME280;51680;49.806;18.774;2023-08-21T04:35:53;97884.97;;;24.57;74.32
41044;BME280;51680;49.806;18.774;2023-08-21T04:38:55;97891.84;;;24.43;74.57
41044;BME280;51680;49.806;18.774;2023-08-21T04:41:59;97907.59;;;24.22;75.89
41044;BME280;51680;49.806;18.774;2023-08-21T04:45:01;97889.81;;;23.99;76.65
41044;BME280;51680;49.806;18.774;2023-08-21T04:48:05;97888.44;;;23.79;77.53
41044;BME280;51680;49.806;18.774;2023-08-21T04:51:07;97892.47;;;23.75;78.02
41044;BME280;51680;49.806;18.774;2023-08-21T04:54:10;97901.78;;;23.71;78.32
41044;BME280;51680;49.806;18.774;2023-08-21T04:57:15;97905.78;;;23.67;78.84
41044;BME280;51680;49.806;18.774;2023-08-21T05:00:17;97903.78;;;23.69;78.70
41044;BME280;51680;49.806;18.774;2023-08-21T05:03:20;97903.63;;;23.86;78.29
41044;BME280;51680;49.806;18.774;2023-08-21T05:06:23;97898.78;;;24.06;77.28
41044;BME280;51680;49.806;18.774;2023-08-21T05:09:25;97906.09;;;24.12;77.34
41044;BME280;51680;49.806;18.774;2023-08-21T05:12:29;97903.28;;;24.13;77.62
41044;BME280;51680;49.806;18.774;2023-08-21T05:15:31;97899.59;;;24.14;77.19
41044;BME280;51680;49.806;18.774;2023-08-21T05:18:33;97909.94;;;24.17;77.42
41044;BME280;51680;49.806;18.774;2023-08-21T05:21:35;97904.59;;;24.17;77.20
41044;BME280;51680;49.806;18.774;2023-08-21T05:24:37;97899.53;;;24.46;76.41
41044;BME280;51680;49.806;18.774;2023-08-21T05:27:42;97896.97;;;24.69;75.59
41044;BME280;51680;49.806;18.774;2023-08-21T05:30:46;97905.75;;;24.85;74.98
41044;BME280;51680;49.806;18.774;2023-08-21T05:33:48;97905.47;;;25.03;74.40
41044;BME280;51680;49.806;18.774;2023-08-21T05:36:50;97905.91;;;25.14;74.26
41044;BME280;51680;49.806;18.774;2023-08-21T05:39:55;97908.34;;;25.32;73.47
41044;BME280;51680;49.806;18.774;2023-08-21T05:42:58;97919.06;;;25.77;72.33
41044;BME280;51680;49.806;18.774;2023-08-21T05:46:01;97908.91;;;26.61;69.25
41044;BME280;51680;49.806;18.774;2023-08-21T05:49:03;97914.97;;;27.48;66.52
41044;BME280;51680;49.806;18.774;2023-08-21T05:52:05;97915.34;;;28.36;64.06
41044;BME280;51680;49.806;18.774;2023-08-21T05:55:07;97909.38;;;29.02;62.21
41044;BME280;51680;49.806;18.774;2023-08-21T05:58:11;97909.84;;;29.12;61.51
41044;BME280;51680;49.806;18.774;2023-08-21T06:01:12;97909.94;;;29.51;60.59
41044;BME280;51680;49.806;18.774;2023-08-21T06:04:15;97912.25;;;29.61;60.50
41044;BME280;51680;49.806;18.774;2023-08-21T06:07:25;97918.53;;;29.87;59.98
41044;BME280;51680;49.806;18.774;2023-08-21T06:10:27;97910.66;;;30.05;59.55
41044;BME280;51680;49.806;18.774;2023-08-21T06:13:30;97907.75;;;29.87;59.48
41044;BME280;51680;49.806;18.774;2023-08-21T06:16:32;97913.53;;;29.71;60.45
41044;BME280;51680;49.806;18.774;2023-08-21T06:19:34;97924.31;;;29.78;60.85
41044;BME280;51680;49.806;18.774;2023-08-21T06:22:36;97922.06;;;30.07;60.28
41044;BME280;51680;49.806;18.774;2023-08-21T06:25:38;97927.06;;;30.23;60.47
41044;BME280;51680;49.806;18.774;2023-08-21T06:28:41;97929.94;;;30.67;59.33
41044;BME280;51680;49.806;18.774;2023-08-21T06:31:43;97928.44;;;31.41;57.83
41044;BME280;51680;49.806;18.774;2023-08-21T06:34:45;97935.63;;;32.22;56.78
41044;BME280;51680;49.806;18.774;2023-08-21T06:37:46;97930.69;;;33.04;55.06
41044;BME280;51680;49.806;18.774;2023-08-21T06:40:48;97930.41;;;33.89;53.26
41044;BME280;51680;49.806;18.774;2023-08-21T06:43:52;97932.41;;;34.69;51.90
41044;BME280;51680;49.806;18.774;2023-08-21T06:46:55;97926.53;;;35.35;50.44
41044;BME280;51680;49.806;18.774;2023-08-21T06:49:57;97933.56;;;35.87;49.02
41044;BME280;51680;49.806;18.774;2023-08-21T06:53:00;97938.91;;;35.82;47.67
41044;BME280;51680;49.806;18.774;2023-08-21T06:56:02;97942.44;;;35.54;48.05
41044;BME280;51680;49.806;18.774;2023-08-21T06:59:05;97946.97;;;35.37;49.25
41044;BME280;51680;49.806;18.774;2023-08-21T07:02:07;97944.75;;;35.74;48.73
41044;BME280;51680;49.806;18.774;2023-08-21T07:05:09;97945.66;;;36.24;47.47
41044;BME280;51680;49.806;18.774;2023-08-21T07:08:10;97943.53;;;36.75;45.73
41044;BME280;51680;49.806;18.774;2023-08-21T07:11:13;97944.50;;;37.24;44.50
41044;BME280;51680;49.806;18.774;2023-08-21T07:14:16;97951.47;;;37.58;43.96
41044;BME280;51680;49.806;18.774;2023-08-21T07:17:18;97957.88;;;37.95;43.12
41044;BME280;51680;49.806;18.774;2023-08-21T07:20:20;97965.84;;;38.23;42.49
41044;BME280;51680;49.806;18.774;2023-08-21T07:23:22;97974.84;;;38.55;41.51
41044;BME280;51680;49.806;18.774;2023-08-21T07:26:23;97961.03;;;38.72;41.03
41044;BME280;51680;49.806;18.774;2023-08-21T07:29:26;97974.88;;;38.92;40.87
41044;BME280;51680;49.806;18.774;2023-08-21T07:32:28;97959.59;;;38.96;40.23
41044;BME280;51680;49.806;18.774;2023-08-21T07:35:30;97972.75;;;39.04;39.73
41044;BME280;51680;49.806;18.774;2023-08-21T07:38:32;97965.59;;;38.93;39.69
41044;BME280;51680;49.806;18.774;2023-08-21T07:41:34;97975.03;;;38.75;39.49
41044;BME280;51680;49.806;18.774;2023-08-21T07:44:38;97973.94;;;38.76;38.86
41044;BME280;51680;49.806;18.774;2023-08-21T07:47:40;97974.00;;;38.86;39.21
41044;BME280;51680;49.806;18.774;2023-08-21T07:50:50;97974.78;;;38.82;38.60
41044;BME280;51680;49.806;18.774;2023-08-21T07:53:52;97976.59;;;39.03;39.37
41044;BME280;51680;49.806;18.774;2023-08-21T07:56:54;97969.59;;;39.22;39.21
41044;BME280;51680;49.806;18.774;2023-08-21T08:03:54;97968.91;;;39.51;38.83
41044;BME280;51680;49.806;18.774;2023-08-21T08:06:55;97976.63;;;39.69;38.80
41044;BME280;51680;49.806;18.774;2023-08-21T08:09:57;97968.75;;;39.78;37.72
41044;BME280;51680;49.806;18.774;2023-08-21T08:12:59;97980.25;;;39.75;37.90
41044;BME280;51680;49.806;18.774;2023-08-21T08:16:01;97990.00;;;39.56;37.89
41044;BME280;51680;49.806;18.774;2023-08-21T08:19:04;97984.50;;;39.46;37.48
41044;BME280;51680;49.806;18.774;2023-08-21T08:22:05;97984.75;;;39.39;37.77
41044;BME280;51680;49.806;18.774;2023-08-21T08:25:07;97990.47;;;39.38;37.92
41044;BME280;51680;49.806;18.774;2023-08-21T08:28:09;97983.38;;;39.37;37.82
41044;BME280;51680;49.806;18.774;2023-08-21T08:31:14;97992.09;;;39.39;37.18
41044;BME280;51680;49.806;18.774;2023-08-21T08:34:17;97981.16;;;39.39;38.09
41044;BME280;51680;49.806;18.774;2023-08-21T08:37:21;97980.06;;;39.35;37.86
41044;BME280;51680;49.806;18.774;2023-08-21T08:40:22;97974.47;;;39.20;37.56
41044;BME280;51680;49.806;18.774;2023-08-21T08:43:25;97978.09;;;38.84;37.98
41044;BME280;51680;49.806;18.774;2023-08-21T08:46:27;97980.09;;;38.62;38.49
41044;BME280;51680;49.806;18.774;2023-08-21T08:49:32;97969.03;;;38.78;38.22
41044;BME280;51680;49.806;18.774;2023-08-21T08:52:34;97977.09;;;38.95;36.72
41044;BME280;51680;49.806;18.774;2023-08-21T08:55:36;97974.69;;;39.08;38.02
41044;BME280;51680;49.806;18.774;2023-08-21T08:58:38;97972.34;;;39.27;37.46
41044;BME280;51680;49.806;18.774;2023-08-21T09:01:40;97974.53;;;39.30;37.33
41044;BME280;51680;49.806;18.774;2023-08-21T09:04:44;97968.59;;;39.38;36.92
41044;BME280;51680;49.806;18.774;2023-08-21T09:07:45;97970.22;;;39.39;37.57
41044;BME280;51680;49.806;18.774;2023-08-21T09:10:47;97964.97;;;38.86;38.30
41044;BME280;51680;49.806;18.774;2023-08-21T09:13:50;97965.97;;;38.70;38.97
41044;BME280;51680;49.806;18.774;2023-08-21T09:17:00;97961.13;;;38.87;36.69
41044;BME280;51680;49.806;18.774;2023-08-21T09:20:06;97953.34;;;39.00;37.51
41044;BME280;51680;49.806;18.774;2023-08-21T09:23:13;97953.16;;;39.12;36.51
41044;BME280;51680;49.806;18.774;2023-08-21T09:26:18;97949.13;;;38.83;37.13
41044;BME280;51680;49.806;18.774;2023-08-21T09:29:20;97945.28;;;38.84;37.86
41044;BME280;51680;49.806;18.774;2023-08-21T09:32:22;97939.91;;;38.52;38.00
41044;BME280;51680;49.806;18.774;2023-08-21T09:35:26;97937.44;;;38.56;38.25
41044;BME280;51680;49.806;18.774;2023-08-21T09:38:28;97936.41;;;38.62;36.61
41044;BME280;51680;49.806;18.774;2023-08-21T09:41:30;97934.31;;;38.74;38.15
41044;BME280;51680;49.806;18.774;2023-08-21T09:44:35;97932.50;;;38.89;36.85
41044;BME280;51680;49.806;18.774;2023-08-21T09:47:37;97926.06;;;39.05;37.49
41044;BME280;51680;49.806;18.774;2023-08-21T09:50:41;97925.31;;;39.25;37.42
41044;BME280;51680;49.806;18.774;2023-08-21T09:53:43;97930.25;;;39.28;36.77
41044;BME280;51680;49.806;18.774;2023-08-21T09:56:47;97914.38;;;39.30;36.90
41044;BME280;51680;49.806;18.774;2023-08-21T09:59:52;97924.78;;;39.28;36.55
41044;BME280;51680;49.806;18.774;2023-08-21T10:02:57;97928.00;;;39.20;37.41
41044;BME280;51680;49.806;18.774;2023-08-21T10:06:03;97929.75;;;39.31;37.58
41044;BME280;51680;49.806;18.774;2023-08-21T10:09:08;97931.22;;;39.58;36.98
41044;BME280;51680;49.806;18.774;2023-08-21T10:12:10;97929.91;;;39.81;35.98
41044;BME280;51680;49.806;18.774;2023-08-21T10:15:14;97928.56;;;39.93;35.61
41044;BME280;51680;49.806;18.774;2023-08-21T10:18:20;97924.47;;;39.91;34.69
41044;BME280;51680;49.806;18.774;2023-08-21T10:21:25;97925.81;;;39.88;35.92
41044;BME280;51680;49.806;18.774;2023-08-21T10:24:27;97917.38;;;40.10;36.29
41044;BME280;51680;49.806;18.774;2023-08-21T10:27:30;97911.13;;;40.34;36.01
41044;BME280;51680;49.806;18.774;2023-08-21T10:30:32;97913.03;;;40.19;35.64
41044;BME280;51680;49.806;18.774;2023-08-21T10:33:45;97908.66;;;40.18;35.24
41044;BME280;51680;49.806;18.774;2023-08-21T10:37:04;97914.66;;;40.25;35.92
41044;BME280;51680;49.806;18.774;2023-08-21T10:40:12;97915.22;;;40.42;35.58
41044;BME280;51680;49.806;18.774;2023-08-21T10:43:39;97911.13;;;40.34;34.82
41044;BME280;51680;49.806;18.774;2023-08-21T10:46:51;97910.84;;;40.46;33.97
41044;BME280;51680;49.806;18.774;2023-08-21T10:49:54;97904.28;;;40.22;34.95
41044;BME280;51680;49.806;18.774;2023-08-21T10:52:57;97896.56;;;39.94;35.88
41044;BME280;51680;49.806;18.774;2023-08-21T10:56:04;97905.72;;;39.48;36.15
41044;BME280;51680;49.806;18.774;2023-08-21T10:59:05;97907.84;;;39.26;37.21
41044;BME280;51680;49.806;18.774;2023-08-21T11:02:07;97899.63;;;39.26;36.75
41044;BME280;51680;49.806;18.774;2023-08-21T11:05:10;97895.78;;;39.22;36.58
41044;BME280;51680;49.806;18.774;2023-08-21T11:08:13;97892.16;;;39.06;37.00
41044;BME280;51680;49.806;18.774;2023-08-21T11:11:16;97890.53;;;39.10;36.03
41044;BME280;51680;49.806;18.774;2023-08-21T11:14:25;97890.56;;;39.15;35.81
41044;BME280;51680;49.806;18.774;2023-08-21T11:17:27;97886.47;;;39.18;36.15
41044;BME280;51680;49.806;18.774;2023-08-21T11:20:29;97890.25;;;39.07;35.63
41044;BME280;51680;49.806;18.774;2023-08-21T11:23:33;97896.19;;;38.94;35.34
41044;BME280;51680;49.806;18.774;2023-08-21T11:26:36;97889.53;;;38.80;35.81
41044;BME280;51680;49.806;18.774;2023-08-21T11:29:38;97893.84;;;38.71;36.28
41044;BME280;51680;49.806;18.774;2023-08-21T11:32:40;97886.72;;;38.65;37.05
41044;BME280;51680;49.806;18.774;2023-08-21T11:35:42;97892.69;;;38.62;37.28
41044;BME280;51680;49.806;18.774;2023-08-21T11:38:57;97885.03;;;38.54;37.23
41044;BME280;51680;49.806;18.774;2023-08-21T11:41:59;97882.28;;;38.54;36.68
41044;BME280;51680;49.806;18.774;2023-08-21T11:45:01;97881.19;;;38.55;35.91
41044;BME280;51680;49.806;18.774;2023-08-21T11:48:04;97880.31;;;38.44;35.99
41044;BME280;51680;49.806;18.774;2023-08-21T11:51:06;97882.38;;;38.32;36.89
41044;BME280;51680;49.806;18.774;2023-08-21T11:54:09;97884.81;;;38.33;36.32
41044;BME280;51680;49.806;18.774;2023-08-21T11:57:13;97880.97;;;38.29;36.66
41044;BME280;51680;49.806;18.774;2023-08-21T12:00:15;97883.13;;;38.22;36.73
41044;BME280;51680;49.806;18.774;2023-08-21T12:03:19;97887.06;;;38.05;37.20
41044;BME280;51680;49.806;18.774;2023-08-21T12:06:21;97887.66;;;37.85;37.64
41044;BME280;51680;49.806;18.774;2023-08-21T12:09:25;97882.53;;;37.62;37.33
41044;BME280;51680;49.806;18.774;2023-08-21T12:12:27;97884.47;;;37.40;38.47
41044;BME280;51680;49.806;18.774;2023-08-21T12:15:28;97887.28;;;37.24;39.02
41044;BME280;51680;49.806;18.774;2023-08-21T12:18:30;97885.66;;;37.06;39.46
41044;BME280;51680;49.806;18.774;2023-08-21T12:21:32;97887.69;;;36.94;40.11
41044;BME280;51680;49.806;18.774;2023-08-21T12:24:36;97878.28;;;36.85;39.77
41044;BME280;51680;49.806;18.774;2023-08-21T12:27:38;97885.84;;;36.78;40.13
41044;BME280;51680;49.806;18.774;2023-08-21T12:30:40;97874.28;;;36.71;40.67
41044;BME280;51680;49.806;18.774;2023-08-21T12:33:41;97878.94;;;36.71;41.02
41044;BME280;51680;49.806;18.774;2023-08-21T12:36:43;97875.53;;;36.64;41.01
41044;BME280;51680;49.806;18.774;2023-08-21T12:39:46;97871.50;;;36.66;40.75
41044;BME280;51680;49.806;18.774;2023-08-21T12:42:48;97865.06;;;36.72;40.40
41044;BME280;51680;49.806;18.774;2023-08-21T12:45:50;97871.44;;;36.83;40.92
41044;BME280;51680;49.806;18.774;2023-08-21T12:48:52;97870.91;;;36.81;40.60
41044;BME280;51680;49.806;18.774;2023-08-21T12:51:54;97857.91;;;36.88;41.25
41044;BME280;51680;49.806;18.774;2023-08-21T12:54:57;97856.84;;;36.67;40.80
41044;BME280;51680;49.806;18.774;2023-08-21T12:57:59;97851.81;;;36.10;42.36
41044;BME280;51680;49.806;18.774;2023-08-21T13:01:01;97846.75;;;35.52;42.00
41044;BME280;51680;49.806;18.774;2023-08-21T13:04:04;97847.13;;;35.05;43.33
41044;BME280;51680;49.806;18.774;2023-08-21T13:07:05;97844.28;;;35.11;43.85
41044;BME280;51680;49.806;18.774;2023-08-21T13:10:09;97836.09;;;35.23;43.01
41044;BME280;51680;49.806;18.774;2023-08-21T13:13:11;97831.50;;;35.23;42.89
41044;BME280;51680;49.806;18.774;2023-08-21T13:16:13;97827.84;;;35.18;42.87
41044;BME280;51680;49.806;18.774;2023-08-21T13:19:15;97827.53;;;35.14;42.52
41044;BME280;51680;49.806;18.774;2023-08-21T13:22:17;97818.28;;;35.15;42.92
41044;BME280;51680;49.806;18.774;2023-08-21T13:25:21;97824.38;;;35.22;42.85
41044;BME280;51680;49.806;18.774;2023-08-21T13:28:24;97825.22;;;35.23;42.31
41044;BME280;51680;49.806;18.774;2023-08-21T13:31:26;97823.81;;;35.20;42.31
41044;BME280;51680;49.806;18.774;2023-08-21T13:34:29;97816.06;;;35.12;42.40
41044;BME280;51680;49.806;18.774;2023-08-21T13:37:30;97802.56;;;35.17;42.71
41044;BME280;51680;49.806;18.774;2023-08-21T13:40:33;97803.97;;;35.20;42.08
41044;BME280;51680;49.806;18.774;2023-08-21T13:43:35;97793.94;;;35.20;42.42
41044;BME280;51680;49.806;18.774;2023-08-21T13:46:37;97802.28;;;35.02;43.07
41044;BME280;51680;49.806;18.774;2023-08-21T13:49:39;97805.63;;;34.93;43.26
41044;BME280;51680;49.806;18.774;2023-08-21T13:52:42;97794.59;;;34.71;43.69
41044;BME280;51680;49.806;18.774;2023-08-21T13:55:45;97802.47;;;34.73;44.17
41044;BME280;51680;49.806;18.774;2023-08-21T13:58:47;97800.72;;;34.78;43.93
41044;BME280;51680;49.806;18.774;2023-08-21T14:01:48;97788.66;;;34.74;44.77
41044;BME280;51680;49.806;18.774;2023-08-21T14:04:51;97790.09;;;34.65;44.21
41044;BME280;51680;49.806;18.774;2023-08-21T14:07:53;97792.91;;;34.70;44.11
41044;BME280;51680;49.806;18.774;2023-08-21T14:10:57;97796.94;;;34.79;43.60
41044;BME280;51680;49.806;18.774;2023-08-21T14:13:58;97780.50;;;34.86;43.20
41044;BME280;51680;49.806;18.774;2023-08-21T14:17:00;97780.38;;;34.92;43.49
41044;BME280;51680;49.806;18.774;2023-08-21T14:20:02;97778.81;;;34.96;43.07
41044;BME280;51680;49.806;18.774;2023-08-21T14:23:04;97779.75;;;35.02;43.33
41044;BME280;51680;49.806;18.774;2023-08-21T14:26:07;97768.38;;;35.05;43.87
41044;BME280;51680;49.806;18.774;2023-08-21T14:29:09;97765.44;;;35.06;43.86
41044;BME280;51680;49.806;18.774;2023-08-21T14:32:11;97772.84;;;35.11;44.34
41044;BME280;51680;49.806;18.774;2023-08-21T14:35:13;97767.88;;;34.91;45.04
41044;BME280;51680;49.806;18.774;2023-08-21T14:38:15;97764.72;;;34.83;44.86
41044;BME280;51680;49.806;18.774;2023-08-21T14:41:45;97772.50;;;34.68;45.52
41044;BME280;51680;49.806;18.774;2023-08-21T14:44:46;97767.72;;;34.58;45.54
41044;BME280;51680;49.806;18.774;2023-08-21T14:47:48;97771.50;;;34.57;46.17
41044;BME280;51680;49.806;18.774;2023-08-21T14:50:50;97774.78;;;34.59;47.21
41044;BME280;51680;49.806;18.774;2023-08-21T14:53:52;97765.09;;;34.63;46.99
41044;BME280;51680;49.806;18.774;2023-08-21T14:56:55;97767.91;;;34.68;48.36
41044;BME280;51680;49.806;18.774;2023-08-21T14:59:56;97755.41;;;34.67;48.08
41044;BME280;51680;49.806;18.774;2023-08-21T15:02:58;97761.31;;;34.64;48.20
41044;BME280;51680;49.806;18.774;2023-08-21T15:06:01;97766.50;;;34.66;47.84
41044;BME280;51680;49.806;18.774;2023-08-21T15:09:02;97765.66;;;34.65;48.42
41044;BME280;51680;49.806;18.774;2023-08-21T15:12:07;97770.78;;;34.50;48.84
41044;BME280;51680;49.806;18.774;2023-08-21T15:15:10;97766.94;;;34.35;48.98
41044;BME280;51680;49.806;18.774;2023-08-21T15:18:12;97755.81;;;34.25;49.01
41044;BME280;51680;49.806;18.774;2023-08-21T15:21:14;97756.22;;;34.17;49.17
41044;BME280;51680;49.806;18.774;2023-08-21T15:24:15;97758.47;;;34.08;48.96
41044;BME280;51680;49.806;18.774;2023-08-21T15:27:18;97769.06;;;33.87;49.68
41044;BME280;51680;49.806;18.774;2023-08-21T15:30:20;97767.72;;;33.66;49.53
41044;BME280;51680;49.806;18.774;2023-08-21T15:33:22;97767.25;;;33.46;50.20
41044;BME280;51680;49.806;18.774;2023-08-21T15:36:24;97766.63;;;33.44;49.82
41044;BME280;51680;49.806;18.774;2023-08-21T15:39:25;97758.78;;;33.25;50.25
41044;BME280;51680;49.806;18.774;2023-08-21T15:42:28;97752.03;;;33.04;50.96
41044;BME280;51680;49.806;18.774;2023-08-21T15:45:32;97750.38;;;33.03;51.49
41044;BME280;51680;49.806;18.774;2023-08-21T15:48:34;97756.88;;;33.14;51.92
41044;BME280;51680;49.806;18.774;2023-08-21T15:51:35;97755.69;;;33.21;51.15
41044;BME280;51680;49.806;18.774;2023-08-21T15:54:37;97760.66;;;33.24;51.47
41044;BME280;51680;49.806;18.774;2023-08-21T15:57:40;97752.38;;;33.08;51.77
41044;BME280;51680;49.806;18.774;2023-08-21T16:00:42;97753.41;;;32.95;51.89